createdAt,value
2018-06-04T00:03:33.174Z,7.37
2018-06-04T00:06:02.611Z,8.23
2018-06-04T00:08:32.083Z,6.93
2018-06-04T00:11:01.945Z,6.80
2018-06-04T00:13:31.587Z,7.40
2018-06-04T00:16:01.184Z,7.03
2018-06-04T00:18:30.870Z,7.27
2018-06-04T00:21:00.509Z,8.00
2018-06-04T00:23:30.022Z,8.07
2018-06-04T00:25:59.722Z,7.83
2018-06-04T00:28:29.661Z,7.57
2018-06-04T00:30:59.090Z,7.93
2018-06-04T00:33:28.735Z,7.80
2018-06-04T00:35:58.273Z,7.87
2018-06-04T00:38:27.512Z,7.47
2018-06-04T00:40:57.111Z,7.77
2018-06-04T00:43:26.908Z,7.33
2018-06-04T00:45:56.456Z,7.80
2018-06-04T00:48:26.133Z,7.90
2018-06-04T00:50:55.867Z,8.67
2018-06-04T00:53:25.229Z,6.83
2018-06-04T00:56:05.604Z,8.10
2018-06-04T00:58:35.233Z,7.80
2018-06-04T01:01:04.583Z,7.83
2018-06-04T01:03:35.217Z,7.73
2018-06-04T01:06:04.719Z,7.73
2018-06-04T01:08:34.072Z,9.10
2018-06-04T01:11:03.740Z,8.33
2018-06-04T01:13:33.330Z,9.07
2018-06-04T01:16:02.858Z,9.07
2018-06-04T01:18:32.668Z,9.00
2018-06-04T01:21:02.299Z,8.57
2018-06-04T01:23:31.692Z,8.13
2018-06-04T01:26:01.277Z,8.37
2018-06-04T01:28:30.881Z,8.63
2018-06-04T01:31:00.405Z,7.97
2018-06-04T01:33:29.916Z,7.93
2018-06-04T01:35:59.296Z,8.27
2018-06-04T01:38:28.868Z,8.40
2018-06-04T01:40:58.694Z,9.00
2018-06-04T01:43:28.172Z,8.57
2018-06-04T01:45:57.750Z,8.27
2018-06-04T01:48:27.117Z,8.67
2018-06-04T01:50:56.720Z,8.70
2018-06-04T01:53:26.890Z,8.93
2018-06-04T01:55:56.812Z,8.23
2018-06-04T01:58:26.896Z,8.67
2018-06-04T02:00:56.706Z,8.33
2018-06-04T02:03:26.401Z,8.33
2018-06-04T02:05:57.176Z,8.70
2018-06-04T02:08:26.712Z,8.27
2018-06-04T02:10:57.006Z,8.20
2018-06-04T02:13:26.647Z,9.00
2018-06-04T02:15:56.234Z,7.60
2018-06-04T02:18:26.361Z,8.50
2018-06-04T02:20:56.115Z,8.83
2018-06-04T02:23:25.902Z,8.70
2018-06-04T02:25:55.465Z,8.40
2018-06-04T02:28:24.881Z,8.10
2018-06-04T02:30:54.773Z,8.43
2018-06-04T02:33:25.528Z,8.80
2018-06-04T02:36:00.084Z,8.87
2018-06-04T02:38:31.092Z,9.20
2018-06-04T02:41:00.829Z,8.20
2018-06-04T02:43:31.023Z,8.00
2018-06-04T02:46:01.194Z,8.17
2018-06-04T02:48:32.339Z,8.40
2018-06-04T02:51:02.437Z,8.60
2018-06-04T02:53:32.524Z,8.57
2018-06-04T02:56:01.935Z,8.63
2018-06-04T02:58:33.291Z,8.53
2018-06-04T03:01:02.836Z,7.90
2018-06-04T03:03:37.664Z,8.37
2018-06-04T03:06:07.121Z,8.63
2018-06-04T03:08:36.937Z,9.23
2018-06-04T03:11:07.079Z,8.77
2018-06-04T03:13:36.521Z,8.33
2018-06-04T03:16:06.047Z,9.07
2018-06-04T03:18:40.459Z,8.10
2018-06-04T03:21:10.187Z,8.87
2018-06-04T03:23:40.292Z,8.13
2018-06-04T03:26:10.280Z,8.47
2018-06-04T03:28:39.844Z,8.87
2018-06-04T03:31:09.864Z,8.63
2018-06-04T03:33:40.738Z,8.80
2018-06-04T03:36:15.584Z,8.83
2018-06-04T03:38:47.167Z,8.03
2018-06-04T03:41:19.163Z,8.27
2018-06-04T03:43:49.815Z,8.80
2018-06-04T03:46:20.959Z,7.97
2018-06-04T03:48:52.664Z,8.50
2018-06-04T03:51:22.764Z,7.70
2018-06-04T03:53:52.194Z,7.60
2018-06-04T03:56:22.250Z,7.77
2018-06-04T03:58:51.750Z,7.97
2018-06-04T04:01:21.762Z,7.93
2018-06-04T04:03:51.469Z,8.23
2018-06-04T04:06:21.053Z,7.67
2018-06-04T04:08:50.595Z,7.87
2018-06-04T04:11:20.304Z,7.47
2018-06-04T04:13:49.755Z,8.13
2018-06-04T04:16:19.092Z,7.87
2018-06-04T04:18:48.850Z,8.20
2018-06-04T04:21:18.483Z,7.13
2018-06-04T04:23:49.558Z,7.20
2018-06-04T04:26:20.355Z,7.13
2018-06-04T04:28:50.275Z,7.37
2018-06-04T04:31:19.662Z,7.73
2018-06-04T04:33:50.622Z,7.63
2018-06-04T04:36:20.621Z,7.40
2018-06-04T04:38:50.603Z,7.50
2018-06-04T04:41:20.397Z,7.47
2018-06-04T04:43:50.555Z,7.73
2018-06-04T04:46:21.197Z,7.97
2018-06-04T04:48:51.818Z,6.93
2018-06-04T04:51:23.715Z,7.27
2018-06-04T04:53:53.717Z,7.70
2018-06-04T04:56:24.255Z,8.20
2018-06-04T04:58:54.741Z,7.53
2018-06-04T05:01:24.675Z,7.53
2018-06-04T05:03:54.284Z,7.20
2018-06-04T05:06:24.323Z,9.10
2018-06-04T05:08:54.578Z,8.13
2018-06-04T05:11:24.821Z,7.70
2018-06-04T05:13:54.521Z,7.77
2018-06-04T05:16:25.817Z,7.53
2018-06-04T05:18:55.882Z,7.90
2018-06-04T05:21:26.100Z,8.13
2018-06-04T05:23:55.617Z,8.90
2018-06-04T05:26:27.370Z,7.40
2018-06-04T05:28:57.373Z,7.17
2018-06-04T05:31:28.915Z,8.37
2018-06-04T05:34:11.231Z,8.87
2018-06-04T05:36:43.872Z,8.87
2018-06-04T05:39:15.160Z,9.70
2018-06-04T05:41:46.878Z,10.03
2018-06-04T05:44:17.225Z,10.63
2018-06-04T05:46:47.725Z,12.60
2018-06-04T05:49:19.657Z,14.20
2018-06-04T05:51:49.766Z,13.53
2018-06-04T05:54:19.420Z,13.90
2018-06-04T05:56:51.214Z,15.00
2018-06-04T05:59:22.000Z,14.30
2018-06-04T06:01:51.964Z,14.60
2018-06-04T06:04:22.491Z,14.20
2018-06-04T06:06:52.973Z,15.23
2018-06-04T06:09:22.548Z,14.63
2018-06-04T06:11:52.353Z,16.03
2018-06-04T06:14:22.445Z,14.80
2018-06-04T06:16:52.678Z,14.67
2018-06-04T06:19:22.470Z,14.87
2018-06-04T06:21:52.303Z,15.33
2018-06-04T06:24:22.531Z,14.67
2018-06-04T06:26:52.133Z,15.00
2018-06-04T06:29:21.866Z,14.20
2018-06-04T06:31:51.911Z,13.50
2018-06-04T06:34:22.312Z,13.00
2018-06-04T06:36:53.012Z,13.93
2018-06-04T06:39:22.778Z,13.57
2018-06-04T06:41:52.892Z,14.10
2018-06-04T06:44:23.582Z,13.87
2018-06-04T06:46:53.810Z,12.80
2018-06-04T06:49:24.921Z,14.90
2018-06-04T06:51:54.922Z,14.13
2018-06-04T06:54:25.205Z,13.20
2018-06-04T06:56:55.944Z,12.70
2018-06-04T06:59:27.016Z,13.27
2018-06-04T07:01:57.470Z,13.33
2018-06-04T07:04:27.105Z,12.37
2018-06-04T07:06:57.229Z,13.40
2018-06-04T07:09:28.251Z,12.80
2018-06-04T07:11:58.419Z,12.20
2018-06-04T07:14:28.634Z,12.63
2018-06-04T07:16:59.006Z,12.00
2018-06-04T07:19:28.578Z,12.20
2018-06-04T07:21:59.059Z,12.80
2018-06-04T07:24:29.255Z,11.83
2018-06-04T07:26:59.148Z,11.90
2018-06-04T07:29:28.960Z,12.20
2018-06-04T07:31:58.700Z,11.60
2018-06-04T07:34:29.710Z,11.77
2018-06-04T07:36:59.783Z,11.03
2018-06-04T07:39:30.760Z,10.53
2018-06-04T07:42:00.676Z,11.23
2018-06-04T07:44:30.508Z,9.87
2018-06-04T07:47:00.142Z,10.67
2018-06-04T07:49:30.011Z,10.33
2018-06-04T07:51:59.880Z,10.07
2018-06-04T07:54:30.514Z,10.37
2018-06-04T07:57:00.329Z,10.27
2018-06-04T07:59:29.858Z,10.40
2018-06-04T08:02:02.674Z,10.00
2018-06-04T08:04:32.981Z,10.67
2018-06-04T08:07:02.950Z,10.60
2018-06-04T08:09:32.682Z,12.90
2018-06-04T08:12:02.117Z,9.80
2018-06-04T08:14:32.334Z,10.47
2018-06-04T08:17:02.113Z,11.03
2018-06-04T08:19:33.910Z,11.20
2018-06-04T08:22:03.922Z,14.00
2018-06-04T08:24:38.127Z,47.07
2018-06-04T08:27:09.335Z,12.70
2018-06-04T08:29:39.063Z,9.90
2018-06-04T08:32:08.861Z,9.93
2018-06-04T08:34:38.485Z,10.67
2018-06-04T08:37:09.101Z,11.20
2018-06-04T08:39:39.071Z,10.50
2018-06-04T08:42:13.652Z,10.50
2018-06-04T08:44:44.773Z,10.27
2018-06-04T08:47:14.448Z,9.60
2018-06-04T08:49:44.768Z,10.00
2018-06-04T08:52:15.394Z,9.77
2018-06-04T08:54:44.998Z,9.67
2018-06-04T08:57:15.170Z,10.10
2018-06-04T08:59:45.974Z,9.93
2018-06-04T09:02:15.935Z,9.90
2018-06-04T09:04:45.790Z,9.70
2018-06-04T09:07:15.939Z,9.40
2018-06-04T09:09:47.082Z,9.90
2018-06-04T09:12:16.924Z,10.03
2018-06-04T09:14:47.014Z,9.70
2018-06-04T09:17:17.818Z,9.20
2018-06-04T09:19:47.353Z,8.57
2018-06-04T09:22:17.519Z,8.83
2018-06-04T09:24:48.544Z,9.33
2018-06-04T09:27:18.439Z,8.67
2018-06-04T09:29:47.897Z,8.47
2018-06-04T09:32:17.963Z,9.03
2018-06-04T09:34:47.872Z,9.17
2018-06-04T09:37:17.938Z,9.50
2018-06-04T09:39:47.758Z,9.23
2018-06-04T09:42:17.661Z,9.40
2018-06-04T09:44:58.765Z,8.30
2018-06-04T09:47:28.405Z,9.40
2018-06-04T09:50:00.782Z,8.70
2018-06-04T09:52:31.101Z,8.07
2018-06-04T09:55:01.241Z,8.43
2018-06-04T09:57:31.353Z,8.00
2018-06-04T10:00:01.187Z,8.50
2018-06-04T10:02:31.600Z,8.30
2018-06-04T10:05:01.696Z,8.47
2018-06-04T10:07:32.436Z,9.80
2018-06-04T10:10:03.489Z,9.00
2018-06-04T10:12:34.304Z,8.30
2018-06-04T10:15:05.911Z,8.83
2018-06-04T10:17:35.776Z,8.97
2018-06-04T10:20:05.750Z,8.40
2018-06-04T10:22:36.071Z,8.73
2018-06-04T10:25:05.783Z,8.40
2018-06-04T10:27:36.912Z,8.60
2018-06-04T10:30:07.082Z,8.30
2018-06-04T10:32:36.848Z,9.30
2018-06-04T10:35:06.462Z,9.67
2018-06-04T10:37:37.020Z,8.80
2018-06-04T10:40:07.317Z,8.90
2018-06-04T10:42:36.898Z,9.30
2018-06-04T10:45:08.950Z,9.40
2018-06-04T10:47:38.622Z,9.67
2018-06-04T10:50:08.132Z,9.33
2018-06-04T10:52:38.229Z,9.40
2018-06-04T10:55:08.478Z,9.23
2018-06-04T10:57:39.490Z,9.20
2018-06-04T11:00:09.592Z,9.37
2018-06-04T11:02:40.059Z,8.50
2018-06-04T11:05:09.740Z,9.70
2018-06-04T11:07:39.638Z,9.60
2018-06-04T11:10:09.749Z,9.37
2018-06-04T11:12:39.341Z,9.83
2018-06-04T11:15:10.037Z,10.47
2018-06-04T11:17:41.016Z,10.13
2018-06-04T11:20:10.704Z,9.80
2018-06-04T11:22:42.202Z,10.60
2018-06-04T11:25:12.515Z,10.47
2018-06-04T11:27:43.962Z,10.57
2018-06-04T11:30:13.936Z,10.93
2018-06-04T11:32:44.152Z,10.77
2018-06-04T11:35:14.129Z,10.20
2018-06-04T11:37:45.222Z,9.70
2018-06-04T11:40:15.247Z,10.67
2018-06-04T11:42:45.194Z,10.37
2018-06-04T11:45:15.214Z,9.70
2018-06-04T11:47:46.587Z,10.03
2018-06-04T11:50:16.652Z,10.17
2018-06-04T11:52:46.575Z,11.53
2018-06-04T11:55:16.213Z,9.90
2018-06-04T11:57:46.986Z,9.97
2018-06-04T12:00:17.606Z,9.80
2018-06-04T12:02:48.780Z,10.13
2018-06-04T12:05:18.741Z,9.57
2018-06-04T12:07:49.452Z,9.87
2018-06-04T12:10:21.586Z,9.70
2018-06-04T12:12:53.705Z,10.70
2018-06-04T12:15:24.405Z,10.37
2018-06-04T12:17:53.921Z,10.00
2018-06-04T12:20:23.519Z,10.07
2018-06-04T12:22:53.601Z,9.90
2018-06-04T12:25:23.465Z,9.90
2018-06-04T12:27:53.044Z,10.30
2018-06-04T12:30:23.047Z,9.17
2018-06-04T12:32:52.608Z,9.20
2018-06-04T12:35:23.684Z,8.40
2018-06-04T12:37:53.939Z,8.40
2018-06-04T12:40:23.937Z,8.67
2018-06-04T12:42:54.303Z,8.50
2018-06-04T12:45:25.373Z,7.63
2018-06-04T12:47:55.059Z,8.23
2018-06-04T12:50:25.120Z,7.67
2018-06-04T12:52:56.381Z,7.20
2018-06-04T12:55:26.006Z,7.00
2018-06-04T12:57:57.375Z,7.00
2018-06-04T13:00:27.055Z,7.33
2018-06-04T13:02:56.361Z,7.23
2018-06-04T13:05:26.746Z,7.07
2018-06-04T13:07:56.462Z,8.50
2018-06-04T13:10:25.976Z,6.80
2018-06-04T13:12:55.473Z,6.67
2018-06-04T13:15:27.125Z,7.13
2018-06-04T13:17:57.079Z,5.43
2018-06-04T13:20:30.743Z,5.57
2018-06-04T13:23:01.220Z,4.10
2018-06-04T13:25:32.258Z,6.50
2018-06-04T13:28:03.220Z,5.00
2018-06-04T13:30:33.220Z,5.77
2018-06-04T13:33:03.274Z,6.17
2018-06-04T13:35:33.364Z,5.40
2018-06-04T13:38:03.054Z,5.10
2018-06-04T13:40:32.582Z,4.77
2018-06-04T13:43:03.730Z,5.27
2018-06-04T13:45:33.559Z,5.07
2018-06-04T13:48:05.356Z,4.30
2018-06-04T13:50:35.304Z,5.07
2018-06-04T13:53:05.388Z,5.40
2018-06-04T13:55:36.161Z,5.23
2018-06-04T13:58:06.708Z,5.40
2018-06-04T14:00:36.680Z,5.60
2018-06-04T14:03:06.458Z,4.57
2018-06-04T14:05:36.870Z,4.80
2018-06-04T14:08:08.026Z,4.30
2018-06-04T14:10:37.384Z,3.87
2018-06-04T14:13:07.143Z,3.20
2018-06-04T14:15:41.516Z,2.83
2018-06-04T14:18:11.862Z,5.50
2018-06-04T14:20:41.365Z,9.20
2018-06-04T14:23:11.356Z,3.70
2018-06-04T14:25:42.223Z,3.00
2018-06-04T14:28:12.000Z,2.80
2018-06-04T14:30:42.008Z,2.87
2018-06-04T14:33:12.378Z,3.03
2018-06-04T14:35:43.536Z,2.60
2018-06-04T14:38:14.187Z,2.57
2018-06-04T14:40:45.370Z,2.80
2018-06-04T14:43:15.606Z,2.60
2018-06-04T14:45:45.180Z,2.60
2018-06-04T14:48:16.241Z,2.80
2018-06-04T14:50:46.330Z,2.40
2018-06-04T14:53:16.412Z,2.80
2018-06-04T14:55:46.190Z,2.90
2018-06-04T14:58:16.734Z,2.50
2018-06-04T15:00:46.280Z,4.40
2018-06-04T15:03:16.619Z,2.43
2018-06-04T15:05:47.841Z,2.70
2018-06-04T15:08:17.652Z,2.20
2018-06-04T15:10:48.707Z,2.67
2018-06-04T15:13:18.306Z,2.17
2018-06-04T15:15:48.634Z,2.70
2018-06-04T15:18:19.575Z,2.43
2018-06-04T15:20:49.788Z,2.70
2018-06-04T15:23:20.221Z,2.50
2018-06-04T15:25:49.767Z,2.53
2018-06-04T15:28:20.512Z,2.80
2018-06-04T15:30:50.736Z,2.50
2018-06-04T15:33:21.319Z,2.30
2018-06-04T15:35:51.963Z,2.40
2018-06-04T15:38:21.964Z,2.30
2018-06-04T15:40:51.895Z,2.50
2018-06-04T15:43:21.676Z,2.30
2018-06-04T15:45:51.447Z,2.77
2018-06-04T15:48:25.808Z,2.53
2018-06-04T15:50:56.407Z,2.23
2018-06-04T15:53:27.421Z,2.77
2018-06-04T15:55:56.951Z,2.73
2018-06-04T15:58:26.813Z,2.30
2018-06-04T16:00:57.389Z,2.47
2018-06-04T16:03:27.502Z,2.80
2018-06-04T16:06:01.943Z,2.50
2018-06-04T16:08:32.781Z,2.43
2018-06-04T16:11:03.241Z,2.13
2018-06-04T16:13:33.482Z,2.30
2018-06-04T16:16:03.972Z,2.93
2018-06-04T16:18:35.275Z,2.60
2018-06-04T16:21:05.760Z,2.70
2018-06-04T16:23:35.793Z,2.60
2018-06-04T16:26:06.752Z,2.40
2018-06-04T16:28:36.293Z,2.50
2018-06-04T16:31:05.586Z,2.80
2018-06-04T16:33:38.774Z,2.43
2018-06-04T16:36:11.923Z,2.70
2018-06-04T16:38:42.983Z,3.03
2018-06-04T16:41:13.691Z,2.53
2018-06-04T16:43:43.805Z,2.80
2018-06-04T16:46:16.107Z,2.30
2018-06-04T16:48:45.981Z,2.70
2018-06-04T16:51:16.186Z,2.10
2018-06-04T16:53:55.606Z,2.47
2018-06-04T16:56:25.641Z,2.53
2018-06-04T16:58:55.387Z,2.80
2018-06-04T17:01:26.910Z,2.60
2018-06-04T17:04:02.301Z,2.20
2018-06-04T17:06:34.077Z,2.20
2018-06-04T17:09:07.018Z,2.70
2018-06-04T17:11:37.442Z,2.40
2018-06-04T17:14:13.279Z,2.53
2018-06-04T17:16:45.648Z,2.30
2018-06-04T17:19:18.147Z,2.37
2018-06-04T17:21:50.076Z,2.50
2018-06-04T17:24:25.838Z,1.83
2018-06-04T17:26:58.109Z,2.10
2018-06-04T17:29:29.393Z,1.97
2018-06-04T17:31:59.680Z,2.27
2018-06-04T17:34:32.053Z,3.30
2018-06-04T17:37:02.293Z,2.30
2018-06-04T17:39:32.883Z,2.00
2018-06-04T17:42:03.815Z,2.23
2018-06-04T17:44:36.823Z,1.70
2018-06-04T17:47:07.019Z,1.90
2018-06-04T17:49:37.192Z,1.70
2018-06-04T17:52:06.665Z,1.70
2018-06-04T17:54:38.146Z,1.63
2018-06-04T17:57:08.008Z,1.57
2018-06-04T17:59:37.411Z,1.60
2018-06-04T18:02:07.443Z,1.50
2018-06-04T18:04:37.303Z,1.33
2018-06-04T18:07:07.687Z,1.50
2018-06-04T18:09:38.690Z,1.50
2018-06-04T18:12:09.662Z,1.60
2018-06-04T18:14:39.742Z,1.47
2018-06-04T18:17:09.147Z,1.57
2018-06-04T18:19:39.506Z,1.60
2018-06-04T18:22:09.889Z,1.53
2018-06-04T18:24:39.821Z,2.00
2018-06-04T18:27:11.791Z,1.60
2018-06-04T18:29:43.226Z,1.77
2018-06-04T18:32:13.266Z,1.50
2018-06-04T18:34:44.186Z,1.63
2018-06-04T18:37:14.827Z,1.50
2018-06-04T18:39:45.177Z,1.33
2018-06-04T18:42:15.172Z,1.50
2018-06-04T18:44:45.299Z,1.57
2018-06-04T18:47:16.039Z,1.30
2018-06-04T18:49:47.211Z,1.40
2018-06-04T18:52:17.951Z,1.40
2018-06-04T18:54:47.920Z,1.40
2018-06-04T18:57:18.264Z,2.07
2018-06-04T18:59:52.798Z,1.40
2018-06-04T19:02:22.434Z,1.40
2018-06-04T19:04:52.246Z,1.40
2018-06-04T19:07:22.459Z,1.60
2018-06-04T19:09:52.933Z,1.30
2018-06-04T19:12:23.427Z,1.43
2018-06-04T19:14:53.183Z,1.20
2018-06-04T19:17:23.060Z,1.70
2018-06-04T19:19:52.716Z,2.57
2018-06-04T19:22:22.717Z,1.10
2018-06-04T19:24:52.324Z,1.40
2018-06-04T19:27:22.166Z,1.90
2018-06-04T19:29:56.929Z,1.50
2018-06-04T19:32:26.745Z,1.70
2018-06-04T19:34:56.947Z,1.50
2018-06-04T19:37:27.585Z,1.90
2018-06-04T19:39:57.424Z,1.47
2018-06-04T19:42:27.924Z,1.33
2018-06-04T19:44:57.996Z,1.37
2018-06-04T19:47:28.187Z,2.23
2018-06-04T19:49:59.782Z,1.40
2018-06-04T19:52:29.038Z,1.50
2018-06-04T19:54:59.473Z,1.40
2018-06-04T19:57:29.656Z,1.30
2018-06-04T19:59:59.366Z,1.40
2018-06-04T20:02:28.843Z,1.40
2018-06-04T20:04:58.897Z,1.60
2018-06-04T20:07:29.814Z,1.30
2018-06-04T20:10:00.905Z,1.80
2018-06-04T20:12:31.670Z,1.60
2018-06-04T20:15:02.024Z,1.73
2018-06-04T20:17:32.892Z,1.30
2018-06-04T20:20:02.940Z,1.20
2018-06-04T20:22:33.639Z,1.30
2018-06-04T20:25:03.660Z,1.20
2018-06-04T20:27:33.834Z,1.20
2018-06-04T20:30:04.826Z,1.67
2018-06-04T20:32:35.198Z,1.30
2018-06-04T20:35:05.004Z,1.60
2018-06-04T20:37:35.622Z,1.30
2018-06-04T20:40:06.118Z,1.30
2018-06-04T20:42:35.508Z,1.40
2018-06-04T20:45:05.166Z,1.23
2018-06-04T20:47:34.754Z,1.37
2018-06-04T20:50:04.932Z,1.20
2018-06-04T20:52:34.832Z,1.30
2018-06-04T20:55:04.758Z,1.43
2018-06-04T20:57:35.626Z,1.20
2018-06-04T21:00:06.252Z,1.17
2018-06-04T21:02:35.842Z,1.10
2018-06-04T21:05:07.953Z,1.33
2018-06-04T21:07:39.457Z,1.30
2018-06-04T21:10:09.745Z,1.93
2018-06-04T21:12:39.583Z,1.40
2018-06-04T21:15:10.011Z,1.60
2018-06-04T21:17:39.685Z,1.60
2018-06-04T21:20:09.061Z,1.80
2018-06-04T21:22:38.515Z,1.30
2018-06-04T21:25:09.175Z,1.33
2018-06-04T21:27:38.632Z,1.60
2018-06-04T21:30:08.289Z,1.90
2018-06-04T21:32:37.988Z,1.70
2018-06-04T21:35:07.493Z,1.40
2018-06-04T21:37:37.183Z,2.00
2018-06-04T21:40:07.562Z,1.50
2018-06-04T21:42:39.375Z,1.30
2018-06-04T21:45:10.146Z,1.50
2018-06-04T21:47:39.577Z,1.10
2018-06-04T21:50:09.493Z,1.50
2018-06-04T21:52:39.364Z,1.13
2018-06-04T21:55:09.064Z,1.30
2018-06-04T21:57:39.244Z,1.87
2018-06-04T22:00:11.354Z,1.40
2018-06-04T22:02:41.216Z,1.70
2018-06-04T22:05:11.492Z,1.60
2018-06-04T22:07:42.370Z,1.00
2018-06-04T22:10:12.043Z,0.97
2018-06-04T22:12:41.464Z,1.20
2018-06-04T22:15:12.740Z,0.87
2018-06-04T22:17:42.418Z,1.00
2018-06-04T22:20:12.932Z,0.90
2018-06-04T22:22:42.640Z,0.83
2018-06-04T22:25:13.058Z,0.83
2018-06-04T22:27:42.462Z,0.97
2018-06-04T22:30:12.422Z,1.00
2018-06-04T22:32:42.187Z,0.80
2018-06-04T22:35:11.544Z,1.10
2018-06-04T22:37:41.368Z,0.90
2018-06-04T22:40:11.660Z,0.93
2018-06-04T22:42:41.360Z,1.03
2018-06-04T22:45:11.359Z,0.90
2018-06-04T22:47:40.644Z,0.90
2018-06-04T22:50:09.928Z,1.13
2018-06-04T22:52:39.729Z,0.80
2018-06-04T22:55:09.152Z,0.90
2018-06-04T22:57:38.931Z,0.90
2018-06-04T23:00:08.849Z,0.80
2018-06-04T23:02:38.311Z,0.80
2018-06-04T23:05:08.217Z,0.70
2018-06-04T23:07:37.950Z,0.83
2018-06-04T23:10:07.403Z,1.00
2018-06-04T23:12:37.438Z,1.17
2018-06-04T23:15:07.351Z,0.90
2018-06-04T23:17:37.242Z,0.80
2018-06-04T23:20:07.304Z,0.90
2018-06-04T23:22:37.079Z,0.77
2018-06-04T23:25:07.331Z,0.80
2018-06-04T23:27:37.420Z,0.87
2018-06-04T23:30:07.312Z,0.80
2018-06-04T23:32:36.921Z,0.97
2018-06-04T23:35:06.871Z,0.80
2018-06-04T23:37:36.384Z,0.90
2018-06-04T23:40:06.177Z,1.00
2018-06-04T23:42:36.113Z,0.60
2018-06-04T23:45:06.095Z,0.90
2018-06-04T23:47:35.662Z,0.80
2018-06-04T23:50:05.612Z,0.57
2018-06-04T23:52:35.528Z,0.70
2018-06-04T23:55:05.226Z,0.83
2018-06-04T23:57:35.247Z,0.80
